METAR Data
IDs: Format: Raw Decoded Include TAF

Data at: 0529 UTC 26 Sep 2018

KGFL 260514Z AUTO 00000KT 3/4SM BR VV003 13/13 A3006 RMK AO2 T01330133 $
KGFL 260503Z AUTO 00000KT 1SM BR OVC002 13/13 A3006 RMK AO2 T01330133 $
KGFL 260453Z AUTO 00000KT 1 1/2SM BR OVC003 13/13 A3006 RMK AO2 SLP182 T01330133 401330072 $
KGFL 260353Z AUTO 00000KT 10SM OVC004 13/13 A3008 RMK AO2 SLP190 T01330133 $
KGFL 260253Z AUTO 00000KT 10SM OVC005 13/13 A3010 RMK AO2 SLP196 60001 T01280128 56018 $
KGFL 260153Z AUTO 00000KT 8SM OVC005 13/13 A3012 RMK AO2 RAB41E50 CIG 002V007 SLP201 P0001 T01280128 $
KGFL 260143Z AUTO 00000KT 4SM -RA BR OVC005 13/13 A3012 RMK AO2 RAB41 CIG 002V007 P0001 T01280128 $
KGFL 260113Z AUTO 00000KT 9SM BKN003 OVC008 13/13 A3013 RMK AO2 P0001 T01280128 $
KGFL 260103Z AUTO 00000KT 9SM SCT003 OVC008 13/13 A3014 RMK AO2 T01280128 $
KGFL 260053Z AUTO 00000KT 10SM SCT004 OVC010 13/13 A3013 RMK AO2 RAE35 SLP207 P0000 T01280128 $
KGFL 260044Z AUTO 00000KT 10SM FEW004 OVC008 13/13 A3014 RMK AO2 RAE35 P0000 T01330133 $
KGFL 252353Z AUTO 00000KT 5SM -RA BR OVC013 13/13 A3016 RMK AO2 RAE01B38 SLP214 P0000 6//// T01280128 10128 20117 58010 $
KGFL 252253Z AUTO 00000KT 4SM -RA BR OVC012 13/13 A3017 RMK AO2 SLP219 P0000 T01280128 $
KGFL 252214Z AUTO 32003KT 4SM -RA BR FEW006 BKN013 OVC017 13/13 A3018 RMK AO2 P0000 T01280128 $
KGFL 252206Z AUTO 30004KT 3SM -RA BR OVC015 13/13 A3019 RMK AO2 P0000 T01280128 $
KGFL 252157Z AUTO 00000KT 2 1/2SM -RA BR SCT011 OVC017 13/13 A3019 RMK AO2 P0000 T01280128 $
KGFL 252153Z AUTO 00000KT 3SM -RA BR BKN014 OVC022 13/13 A3019 RMK AO2 RAB09 SLP226 T01280128 PNO $
KGFL 252145Z AUTO 00000KT 4SM -RA BR BKN016 OVC023 13/13 A3019 RMK AO2 RAB09 T01280128 PNO $
KGFL 252129Z AUTO 00000KT 9SM -RA BKN014 OVC025 13/12 A3020 RMK AO2 RAB09 T01280122 PNO $
KGFL 252053Z AUTO 00000KT 9SM FEW005 BKN018 OVC025 12/12 A3021 RMK AO2 RAE52 SLP233 6//// T01220122 58029 PNO $
KGFL 251953Z AUTO 00000KT 3SM -RA BR FEW004 SCT009 OVC019 12/12 A3025 RMK AO2 SLP246 T01220122 PNO $
KGFL 251951Z AUTO 00000KT 3SM -RA BR SCT004 BKN019 OVC023 12/12 A3025 RMK AO2 PNO $
KGFL 251943Z AUTO 00000KT 2 1/2SM -RA BR SCT003 BKN009 OVC026 12/12 A3025 RMK AO2 T01220117 PNO $
KGFL 251928Z AUTO 36004KT 2SM -RA BR FEW009 BKN021 OVC028 12/12 A3026 RMK AO2 T01220122 PNO $
KGFL 251917Z AUTO 02003KT 3SM -RA BR FEW009 BKN021 OVC028 12/12 A3026 RMK AO2 T01170117 PNO $
KGFL 251905Z AUTO 36004KT 2SM +RA BR SCT014 BKN021 OVC030 12/12 A3027 RMK AO2 P0000 T01170117
KGFL 251853Z AUTO 01005KT 3SM -RA BR OVC014 12/12 A3027 RMK AO2 SLP255 T01170117 PNO $
KGFL 251835Z AUTO 33004KT 2SM RA BR BKN012 OVC016 12/12 A3029 RMK AO2 T01170117 PNO $
KGFL 251807Z AUTO 02004KT 2 1/2SM -RA BR BKN017 OVC024 12/12 A3029 RMK AO2 P0000 T01170117 $
KGFL 251753Z AUTO 01005KT 4SM -RA BR OVC019 12/12 A3030 RMK AO2 SLP262 6//// T01170117 10117 20100 56035 PNO $
KGFL 251725Z AUTO 35004KT 5SM -RA BR OVC017 11/11 A3032 RMK AO2 T01110111 PNO $
KGFL 251653Z AUTO 30007KT 2 1/2SM RA BR OVC018 11/11 A3033 RMK AO2 SLP274 T01060106 PNO
KGFL 251642Z AUTO 30005KT 3SM RA BR FEW007 SCT011 OVC020 11/11 A3033 RMK AO2 T01060106 PNO
KGFL 251626Z AUTO 31006KT 3SM RA BR SCT008 BKN011 OVC022 11/10 A3033 RMK AO2 T01060100 PNO
KGFL 251618Z AUTO 32005KT 2SM +RA BR BKN007 OVC022 11/10 A3033 RMK AO2 T01060100 PNO $
KGFL 251553Z AUTO 01004KT 10SM -RA BKN006 BKN023 OVC041 11/10 A3034 RMK AO2 SLP278 T01060100 PNO
KGFL 251541Z AUTO 04004KT 7SM -RA BKN007 BKN022 OVC041 11/09 A3035 RMK AO2 T01060094 PNO
KGFL 251513Z AUTO 35003KT 8SM -RA FEW007 BKN026 OVC040 10/09 A3038 RMK AO2 T01000094 PNO
KGFL 251453Z AUTO 33003KT 6SM -RA BR FEW006 SCT011 OVC043 10/09 A3040 RMK AO2 SLP297 6//// T01000089 56010 PNO $
KGFL 251448Z AUTO 00000KT 6SM -RA BR SCT006 SCT020 OVC043 10/09 A3040 RMK AO2 PNO $
KGFL 251353Z AUTO 34003KT 5SM -RA BR OVC037 10/09 A3042 RMK AO2 SLP306 P0000 T01000089
KGFL 251253Z AUTO 00000KT 10SM -RA BKN041 OVC049 10/08 A3043 RMK AO2 RAB01 SLP308 P0000 T01000078
KGFL 251153Z AUTO 35003KT 10SM BKN041 BKN049 OVC060 10/08 A3044 RMK AO2 SLP312 T01000078 10100 20072 56014
KGFL 251053Z AUTO 00000KT 10SM BKN038 OVC060 09/07 A3045 RMK AO2 SLP315 T00940072
KGFL 250953Z AUTO 00000KT 10SM BKN044 OVC070 09/07 A3047 RMK AO2 SLP322 T00890072
KGFL 250853Z AUTO 00000KT 10SM SCT070 08/08 A3048 RMK AO2 SLP325 T00830078 56018
KGFL 250753Z AUTO 00000KT 10SM CLR 08/07 A3049 RMK AO2 SLP327 T00830072
KGFL 250653Z AUTO 00000KT 10SM CLR 08/07 A3052 RMK AO2 SLP338 T00830072
KGFL 250553Z AUTO 19003KT 10SM CLR 09/07 A3054 RMK AO2 SLP343 T00890067 10117 20083 58007
KGFL 250453Z AUTO 00000KT 10SM SCT039 09/07 A3055 RMK AO2 SLP346 T00890072 401720056
KGFL 250353Z AUTO 17003KT 10SM OVC038 11/07 A3056 RMK AO2 SLP352 T01060072
KGFL 250253Z AUTO 19003KT 10SM OVC039 10/08 A3056 RMK AO2 SLP352 T01000078 51007
KGFL 250153Z AUTO 21004KT 10SM OVC037 11/08 A3055 RMK AO2 SLP350 T01060083
KGFL 250053Z AUTO 17004KT 10SM OVC036 11/08 A3054 RMK AO2 SLP346 T01110083
KGFL 242353Z AUTO 18003KT 10SM OVC034 12/08 A3054 RMK AO2 SLP344 T01170083 10172 20106 51007
KGFL 242253Z AUTO 18003KT 10SM FEW038 12/08 A3053 RMK AO2 SLP341 T01170083
KGFL 242153Z AUTO 17007KT 10SM CLR 13/09 A3053 RMK AO2 SLP341 T01330089
KGFL 242053Z AUTO 20010KT 10SM CLR 14/09 A3052 RMK AO2 SLP337 T01440089 53000
KGFL 241953Z AUTO 20008KT 10SM OVC043 16/09 A3049 RMK AO2 SLP329 T01610094
KGFL 241853Z AUTO VRB04KT 10SM BKN038 16/09 A3051 RMK AO2 SLP333 T01610094
KGFL 241753Z AUTO 09004KT 10SM BKN033 16/09 A3051 RMK AO2 SLP336 T01610094 10161 20072 58010